createdAt,value
2019-03-15T00:02:15.927Z,97040.83
2019-03-15T00:04:46.785Z,97053.48
2019-03-15T00:07:17.744Z,97063.92
2019-03-15T00:09:48.703Z,97079.28
2019-03-15T00:12:19.620Z,97068.05
2019-03-15T00:14:50.582Z,97087.67
2019-03-15T00:17:21.530Z,97087.92
2019-03-15T00:19:52.490Z,97077.69
2019-03-15T00:22:23.379Z,97087.44
2019-03-15T00:24:54.359Z,97082.96
2019-03-15T00:27:25.347Z,97086.34
2019-03-15T00:29:56.237Z,97088.62
2019-03-15T00:32:27.215Z,97088.38
2019-03-15T00:34:58.108Z,97093.59
2019-03-15T00:37:29.252Z,97082.56
2019-03-15T00:40:00.284Z,97076.95
2019-03-15T00:42:31.204Z,97085.20
2019-03-15T00:45:02.279Z,97081.22
2019-03-15T00:47:33.169Z,97095.19
2019-03-15T00:50:06.819Z,97095.08
2019-03-15T00:52:37.731Z,97093.05
2019-03-15T00:55:08.848Z,97102.45
2019-03-15T00:57:39.811Z,97111.39
2019-03-15T01:00:13.761Z,97104.37
2019-03-15T01:02:44.715Z,97112.97
2019-03-15T01:05:17.125Z,97129.66
2019-03-15T01:07:48.133Z,97129.37
2019-03-15T01:10:19.318Z,97126.78
2019-03-15T01:12:50.961Z,97117.03
2019-03-15T01:15:21.927Z,97121.46
2019-03-15T01:17:53.082Z,97134.66
2019-03-15T01:20:23.969Z,97125.13
2019-03-15T01:22:54.926Z,97121.56
2019-03-15T01:25:25.777Z,97131.50
2019-03-15T01:27:56.776Z,97131.05
2019-03-15T01:30:27.739Z,97139.59
2019-03-15T01:32:58.590Z,97137.30
2019-03-15T01:35:29.598Z,97142.97
2019-03-15T01:38:00.417Z,97154.75
2019-03-15T01:40:31.369Z,97155.78
2019-03-15T01:43:02.265Z,97152.53
2019-03-15T01:45:33.233Z,97158.74
2019-03-15T01:48:04.173Z,97151.22
2019-03-15T01:50:35.203Z,97158.50
2019-03-15T01:53:06.121Z,97174.52
2019-03-15T01:55:37.163Z,97157.83
2019-03-15T01:58:08.055Z,97164.34
2019-03-15T02:00:39.047Z,97167.71
2019-03-15T02:03:09.919Z,97156.36
2019-03-15T02:05:40.791Z,97150.44
2019-03-15T02:08:11.777Z,97169.67
2019-03-15T02:10:42.652Z,97177.55
2019-03-15T02:13:13.613Z,97190.20
2019-03-15T02:15:44.466Z,97195.77
2019-03-15T02:18:17.498Z,97197.05
2019-03-15T02:20:49.239Z,97189.56
2019-03-15T02:23:20.119Z,97184.75
2019-03-15T02:25:51.000Z,97191.82
2019-03-15T02:28:21.873Z,97186.66
2019-03-15T02:30:52.997Z,97184.42
2019-03-15T02:33:23.852Z,97190.83
2019-03-15T02:35:54.822Z,97188.06
2019-03-15T02:38:27.032Z,97200.09
2019-03-15T02:40:58.106Z,97202.63
2019-03-15T02:43:29.035Z,97193.05
2019-03-15T02:45:59.921Z,97195.94
2019-03-15T02:48:30.877Z,97191.23
2019-03-15T02:51:01.822Z,97189.25
2019-03-15T02:53:32.680Z,97192.05
2019-03-15T02:56:03.726Z,97191.77
2019-03-15T02:58:34.666Z,97193.45
2019-03-15T03:01:05.616Z,97187.83
2019-03-15T03:03:38.737Z,97200.86
2019-03-15T03:06:09.638Z,97182.50
2019-03-15T03:08:41.295Z,97180.26
2019-03-15T03:11:12.528Z,97179.28
2019-03-15T03:13:43.424Z,97181.81
2019-03-15T03:16:14.284Z,97200.06
2019-03-15T03:18:45.237Z,97200.01
2019-03-15T03:21:16.083Z,97196.02
2019-03-15T03:23:47.073Z,97196.47
2019-03-15T03:26:17.941Z,97191.05
2019-03-15T03:28:48.814Z,97203.23
2019-03-15T03:31:19.703Z,97193.67
2019-03-15T03:33:58.698Z,97201.44
2019-03-15T03:36:29.630Z,97193.28
2019-03-15T03:39:00.604Z,97198.61
2019-03-15T03:41:31.664Z,97206.67
2019-03-15T03:44:02.645Z,97203.83
2019-03-15T03:46:33.580Z,97206.17
2019-03-15T03:49:04.631Z,97218.10
2019-03-15T03:51:35.540Z,97206.86
2019-03-15T03:54:08.712Z,97216.51
2019-03-15T03:56:39.718Z,97204.70
2019-03-15T03:59:10.713Z,97223.75
2019-03-15T04:01:41.655Z,97224.90
2019-03-15T04:04:12.633Z,97226.70
2019-03-15T04:06:43.574Z,97233.16
2019-03-15T04:09:14.552Z,97221.13
2019-03-15T04:11:55.442Z,97220.92
2019-03-15T04:14:18.089Z,97212.49
2019-03-15T04:16:48.979Z,97206.70
2019-03-15T04:19:19.920Z,97198.68
2019-03-15T04:21:50.884Z,97202.95
2019-03-15T04:24:21.746Z,97190.86
2019-03-15T04:26:52.699Z,97202.91
2019-03-15T04:29:23.585Z,97204.89
2019-03-15T04:31:54.508Z,97209.68
2019-03-15T04:34:28.261Z,97221.27
2019-03-15T04:36:58.209Z,97215.95
2019-03-15T04:39:29.272Z,97228.49
2019-03-15T04:42:00.175Z,97227.31
2019-03-15T04:44:31.091Z,97234.12
2019-03-15T04:47:02.046Z,97237.95
2019-03-15T04:49:33.039Z,97240.92
2019-03-15T04:52:04.113Z,97241.03
2019-03-15T04:54:35.116Z,97244.81
2019-03-15T04:57:06.158Z,97246.50
2019-03-15T04:59:37.166Z,97237.75
2019-03-15T05:02:08.136Z,97251.63
2019-03-15T05:04:39.044Z,97264.56
2019-03-15T05:07:09.924Z,97256.99
2019-03-15T05:09:45.952Z,97270.53
2019-03-15T05:12:17.037Z,97261.47
2019-03-15T05:14:47.922Z,97264.56
2019-03-15T05:17:22.048Z,97271.56
2019-03-15T05:19:52.894Z,97274.66
2019-03-15T05:22:23.846Z,97263.52
2019-03-15T05:24:56.638Z,97271.39
2019-03-15T05:27:27.664Z,97263.63
2019-03-15T05:29:58.624Z,97261.88
2019-03-15T05:32:30.989Z,97264.56
2019-03-15T05:35:02.136Z,97269.95
2019-03-15T05:37:33.475Z,97262.77
2019-03-15T05:40:08.734Z,97274.02
2019-03-15T05:42:42.788Z,97270.14
2019-03-15T05:45:13.730Z,97265.41
2019-03-15T05:47:44.667Z,97269.75
2019-03-15T05:50:15.618Z,97266.26
2019-03-15T05:52:54.790Z,97270.09
2019-03-15T05:55:25.703Z,97280.94
2019-03-15T05:57:56.625Z,97277.40
2019-03-15T06:00:27.671Z,97272.53
2019-03-15T06:02:58.847Z,97286.27
2019-03-15T06:05:34.665Z,97281.38
2019-03-15T06:08:05.851Z,97277.95
2019-03-15T06:10:36.808Z,97265.37
2019-03-15T06:13:07.814Z,97267.20
2019-03-15T06:15:38.674Z,97268.78
2019-03-15T06:18:11.144Z,97266.59
2019-03-15T06:20:42.068Z,97255.59
2019-03-15T06:23:16.983Z,97255.98
2019-03-15T06:25:49.416Z,97253.98
2019-03-15T06:28:20.346Z,97249.94
2019-03-15T06:30:51.412Z,97253.17
2019-03-15T06:33:22.313Z,97271.74
2019-03-15T06:35:53.356Z,97253.45
2019-03-15T06:38:24.272Z,97263.72
2019-03-15T06:40:55.315Z,97270.72
2019-03-15T06:43:26.266Z,97258.11
2019-03-15T06:45:57.190Z,97269.20
2019-03-15T06:48:28.435Z,97274.17
2019-03-15T06:50:59.342Z,97281.88
2019-03-15T06:53:30.217Z,97282.22
2019-03-15T06:56:01.127Z,97285.17
2019-03-15T06:58:32.091Z,97275.30
2019-03-15T07:01:03.007Z,97267.38
2019-03-15T07:03:33.874Z,97268.10
2019-03-15T07:06:04.831Z,97272.83
2019-03-15T07:08:35.751Z,97275.22
2019-03-15T07:11:06.707Z,97273.92
2019-03-15T07:13:37.719Z,97274.20
2019-03-15T07:16:08.715Z,97279.29
2019-03-15T07:18:39.757Z,97281.31
2019-03-15T07:21:10.669Z,97278.72
2019-03-15T07:23:41.566Z,97288.03
2019-03-15T07:26:13.016Z,97277.67
2019-03-15T07:28:44.181Z,97269.59
2019-03-15T07:31:15.312Z,97268.02
2019-03-15T07:33:55.478Z,97266.22
2019-03-15T07:36:25.792Z,97261.48
2019-03-15T07:38:56.753Z,97261.09
2019-03-15T07:41:27.699Z,97266.84
2019-03-15T07:43:58.601Z,97270.89
2019-03-15T07:46:29.588Z,97256.30
2019-03-15T07:49:00.585Z,97256.30
2019-03-15T07:51:31.653Z,97262.39
2019-03-15T07:54:02.533Z,97263.11
2019-03-15T07:56:33.480Z,97264.41
2019-03-15T07:59:04.522Z,97262.80
2019-03-15T08:01:35.547Z,97259.59
2019-03-15T08:04:16.189Z,97266.59
2019-03-15T08:06:38.998Z,97259.40
2019-03-15T08:09:10.043Z,97259.61
2019-03-15T08:11:40.971Z,97266.38
2019-03-15T08:14:14.658Z,97266.84
2019-03-15T08:16:45.618Z,97281.36
2019-03-15T08:19:16.556Z,97273.20
2019-03-15T08:21:47.484Z,97273.14
2019-03-15T08:24:18.448Z,97277.08
2019-03-15T08:26:49.341Z,97274.88
2019-03-15T08:29:20.272Z,97270.36
2019-03-15T08:31:51.159Z,97270.66
2019-03-15T08:34:22.107Z,97268.86
2019-03-15T08:36:53.128Z,97274.77
2019-03-15T08:39:24.086Z,97265.55
2019-03-15T08:41:55.126Z,97267.05
2019-03-15T08:44:26.146Z,97267.56
2019-03-15T08:46:57.197Z,97267.90
2019-03-15T08:49:28.134Z,97270.81
2019-03-15T08:52:03.827Z,97269.97
2019-03-15T08:54:31.756Z,97267.58
2019-03-15T08:57:02.771Z,97265.23
2019-03-15T08:59:33.736Z,97261.74
2019-03-15T09:02:04.784Z,97266.34
2019-03-15T09:04:38.968Z,97272.77
2019-03-15T09:07:09.927Z,97265.05
2019-03-15T09:09:40.976Z,97262.72
2019-03-15T09:12:11.980Z,97260.52
2019-03-15T09:14:42.850Z,97260.71
2019-03-15T09:17:14.219Z,97262.25
2019-03-15T09:19:45.146Z,97260.11
2019-03-15T09:22:16.077Z,97260.63
2019-03-15T09:24:47.051Z,97257.86
2019-03-15T09:27:18.060Z,97255.91
2019-03-15T09:29:49.103Z,97248.14
2019-03-15T09:32:20.034Z,97253.31
2019-03-15T09:34:51.081Z,97252.81
2019-03-15T09:37:22.034Z,97251.91
2019-03-15T09:39:53.054Z,97262.12
2019-03-15T09:42:23.928Z,97248.95
2019-03-15T09:45:02.094Z,97252.72
2019-03-15T09:47:33.770Z,97253.03
2019-03-15T09:50:20.623Z,97247.41
2019-03-15T09:52:39.294Z,97245.58
2019-03-15T09:55:11.414Z,97257.78
2019-03-15T09:57:42.512Z,97261.02
2019-03-15T10:00:17.600Z,97249.93
2019-03-15T10:02:48.699Z,97249.37
2019-03-15T10:05:19.748Z,97250.02
2019-03-15T10:07:50.800Z,97248.13
2019-03-15T10:10:21.819Z,97247.13
2019-03-15T10:13:05.145Z,97237.02
2019-03-15T10:15:26.636Z,97233.48
2019-03-15T10:17:57.782Z,97230.89
2019-03-15T10:20:28.793Z,97229.65
2019-03-15T10:23:05.921Z,97221.02
2019-03-15T10:25:45.551Z,97216.09
2019-03-15T10:28:04.950Z,97206.53
2019-03-15T10:30:35.910Z,97202.45
2019-03-15T10:33:06.956Z,97193.16
2019-03-15T10:35:37.970Z,97187.59
2019-03-15T10:38:08.920Z,97183.69
2019-03-15T10:40:39.959Z,97178.76
2019-03-15T10:43:10.983Z,97177.15
2019-03-15T10:45:41.929Z,97172.81
2019-03-15T10:48:24.549Z,97168.69
2019-03-15T10:50:45.842Z,97176.45
2019-03-15T10:53:16.882Z,97165.25
2019-03-15T10:55:59.474Z,97153.05
2019-03-15T10:58:20.432Z,97131.55
2019-03-15T11:00:51.377Z,97130.20
2019-03-15T11:03:22.290Z,97144.23
2019-03-15T11:05:53.181Z,97149.09
2019-03-15T11:08:24.412Z,97146.50
2019-03-15T11:10:55.330Z,97146.50
2019-03-15T11:13:26.307Z,97143.58
2019-03-15T11:15:57.247Z,97148.24
2019-03-15T11:18:28.248Z,97148.19
2019-03-15T11:20:59.140Z,97133.34
2019-03-15T11:23:31.489Z,97135.87
2019-03-15T11:26:12.967Z,97133.85
2019-03-15T11:28:35.086Z,97135.36
2019-03-15T11:31:05.980Z,97131.53
2019-03-15T11:33:36.971Z,97119.02
2019-03-15T11:36:07.939Z,97124.50
2019-03-15T11:38:38.909Z,97108.23
2019-03-15T11:41:09.874Z,97104.48
2019-03-15T11:43:40.938Z,97106.34
2019-03-15T11:46:11.824Z,97106.17
2019-03-15T11:48:42.785Z,97109.27
2019-03-15T11:51:13.730Z,97100.13
2019-03-15T11:53:44.749Z,97093.68
2019-03-15T11:56:26.424Z,97097.47
2019-03-15T11:58:48.399Z,97090.47
2019-03-15T12:01:19.305Z,97097.05
2019-03-15T12:03:53.204Z,97091.09
2019-03-15T12:06:22.925Z,97086.45
2019-03-15T12:08:53.936Z,97095.40
2019-03-15T12:11:24.906Z,97085.25
2019-03-15T12:13:55.789Z,97087.94
2019-03-15T12:16:26.658Z,97088.39
2019-03-15T12:18:57.919Z,97077.73
2019-03-15T12:21:28.989Z,97074.23
2019-03-15T12:23:59.847Z,97077.20
2019-03-15T12:26:40.186Z,97076.06
2019-03-15T12:29:03.394Z,97086.20
2019-03-15T12:31:34.282Z,97088.34
2019-03-15T12:34:05.250Z,97082.89
2019-03-15T12:36:38.132Z,97073.05
2019-03-15T12:39:09.229Z,97074.66
2019-03-15T12:41:40.191Z,97086.58
2019-03-15T12:44:11.073Z,97082.91
2019-03-15T12:46:41.999Z,97066.50
2019-03-15T12:49:12.861Z,97065.09
2019-03-15T12:51:43.825Z,97059.89
2019-03-15T12:54:14.788Z,97053.52
2019-03-15T12:56:53.797Z,97050.14
2019-03-15T12:59:18.440Z,97054.87
2019-03-15T13:01:49.316Z,97036.97
2019-03-15T13:04:20.227Z,97039.58
2019-03-15T13:06:51.247Z,97047.09
2019-03-15T13:09:22.145Z,97036.88
2019-03-15T13:11:53.017Z,97041.47
2019-03-15T13:14:23.961Z,97045.74
2019-03-15T13:16:54.824Z,97049.52
2019-03-15T13:19:25.851Z,97046.24
2019-03-15T13:21:56.916Z,97045.34
2019-03-15T13:24:27.795Z,97049.81
2019-03-15T13:27:07.270Z,97051.36
2019-03-15T13:29:34.886Z,97054.73
2019-03-15T13:32:05.956Z,97058.39
2019-03-15T13:34:36.817Z,97044.25
2019-03-15T13:37:07.849Z,97052.29
2019-03-15T13:39:38.852Z,97062.08
2019-03-15T13:42:09.723Z,97050.63
2019-03-15T13:44:40.624Z,97063.66
2019-03-15T13:47:11.588Z,97053.91
2019-03-15T13:49:42.570Z,97047.78
2019-03-15T13:52:13.713Z,97055.52
2019-03-15T13:54:44.704Z,97055.34
2019-03-15T13:57:21.095Z,97039.14
2019-03-15T13:59:48.258Z,97049.28
2019-03-15T14:02:19.200Z,97044.99
2019-03-15T14:04:50.217Z,97026.37
2019-03-15T14:07:21.201Z,97041.92
2019-03-15T14:09:55.390Z,97044.23
2019-03-15T14:12:26.298Z,97043.05
2019-03-15T14:14:57.324Z,97049.75
2019-03-15T14:17:28.340Z,97036.05
2019-03-15T14:19:59.248Z,97019.58
2019-03-15T14:22:30.219Z,97032.72
2019-03-15T14:25:05.989Z,97032.60
2019-03-15T14:27:38.046Z,97037.93
2019-03-15T14:30:11.949Z,97035.41
2019-03-15T14:32:42.973Z,97019.75
2019-03-15T14:35:13.930Z,97028.02
2019-03-15T14:37:45.002Z,97055.23
2019-03-15T14:40:16.369Z,97037.98
2019-03-15T14:42:47.414Z,97024.11
2019-03-15T14:45:18.595Z,97028.87
2019-03-15T14:47:49.876Z,97040.48
2019-03-15T14:50:21.049Z,97038.07
2019-03-15T14:52:52.084Z,97054.94
2019-03-15T14:55:23.212Z,97032.83
2019-03-15T14:58:00.025Z,97036.10
2019-03-15T15:00:29.838Z,97031.72
2019-03-15T15:03:00.962Z,97018.74
2019-03-15T15:05:31.870Z,97045.13
2019-03-15T15:08:05.955Z,97041.39
2019-03-15T15:10:37.182Z,97053.31
2019-03-15T15:13:09.873Z,97036.46
2019-03-15T15:15:42.626Z,97042.16
2019-03-15T15:18:13.622Z,97039.80
2019-03-15T15:20:47.800Z,97044.16
2019-03-15T15:23:20.117Z,97036.70
2019-03-15T15:25:53.031Z,97051.44
2019-03-15T15:28:24.258Z,97040.06
2019-03-15T15:30:55.293Z,97043.11
2019-03-15T15:33:26.253Z,97035.04
2019-03-15T15:35:57.805Z,97028.89
2019-03-15T15:38:30.631Z,97020.00
2019-03-15T15:41:04.040Z,97025.97
2019-03-15T15:43:35.785Z,97025.90
2019-03-15T15:46:06.755Z,97028.70
2019-03-15T15:48:38.394Z,97016.52
2019-03-15T15:51:09.937Z,97013.62
2019-03-15T15:53:41.042Z,97027.78
2019-03-15T15:56:15.519Z,97037.88
2019-03-15T15:58:46.677Z,97040.11
2019-03-15T16:01:19.459Z,97040.21
2019-03-15T16:03:50.704Z,97038.45
2019-03-15T16:06:22.059Z,97016.17
2019-03-15T16:08:53.158Z,97029.41
2019-03-15T16:11:24.317Z,97035.84
2019-03-15T16:13:55.274Z,97026.05
2019-03-15T16:16:26.425Z,97035.37
2019-03-15T16:18:59.733Z,97046.54
2019-03-15T16:21:37.093Z,97038.25
2019-03-15T16:24:08.018Z,97063.70
2019-03-15T16:26:39.194Z,97057.30
2019-03-15T16:29:10.264Z,97055.62
2019-03-15T16:31:44.334Z,97084.65
2019-03-15T16:34:17.021Z,97078.97
2019-03-15T16:36:48.053Z,97074.52
2019-03-15T16:39:19.152Z,97081.58
2019-03-15T16:41:51.819Z,97070.31
2019-03-15T16:44:23.673Z,97083.89
2019-03-15T16:46:54.843Z,97096.00
2019-03-15T16:49:30.326Z,97083.72
2019-03-15T16:52:01.436Z,97090.62
2019-03-15T16:54:32.427Z,97091.45
2019-03-15T16:57:03.578Z,97073.41
2019-03-15T16:59:34.591Z,97099.02
2019-03-15T17:02:05.577Z,97091.28
2019-03-15T17:04:36.546Z,97102.09
2019-03-15T17:07:07.669Z,97096.03
2019-03-15T17:09:38.801Z,97093.05
2019-03-15T17:12:09.862Z,97090.53
2019-03-15T17:14:40.746Z,97083.00
2019-03-15T17:17:11.749Z,97084.47
2019-03-15T17:19:42.773Z,97092.76
2019-03-15T17:22:13.698Z,97092.13
2019-03-15T17:24:44.561Z,97082.63
2019-03-15T17:27:17.096Z,97080.02
2019-03-15T17:29:48.317Z,97092.59
2019-03-15T17:32:19.333Z,97094.98
2019-03-15T17:34:50.668Z,97082.04
2019-03-15T17:37:21.960Z,97088.18
2019-03-15T17:39:53.194Z,97087.92
2019-03-15T17:42:24.258Z,97104.02
2019-03-15T17:44:55.841Z,97096.75
2019-03-15T17:47:26.752Z,97102.34
2019-03-15T17:49:57.651Z,97110.17
2019-03-15T17:52:28.642Z,97099.83
2019-03-15T17:55:02.349Z,97095.66
2019-03-15T17:57:33.340Z,97104.03
2019-03-15T18:00:35.786Z,97111.94
2019-03-15T18:03:19.957Z,97120.42
2019-03-15T18:05:40.764Z,97118.20
2019-03-15T18:08:11.892Z,97108.41
2019-03-15T18:10:42.784Z,97106.05
2019-03-15T18:13:13.862Z,97102.42
2019-03-15T18:15:44.828Z,97108.39
2019-03-15T18:18:15.802Z,97121.30
2019-03-15T18:20:46.660Z,97088.63
2019-03-15T18:23:17.768Z,97082.20
2019-03-15T18:25:48.860Z,97115.83
2019-03-15T18:28:19.784Z,97114.83
2019-03-15T18:30:50.718Z,97109.79
2019-03-15T18:33:21.687Z,97101.12
2019-03-15T18:35:52.658Z,97104.20
2019-03-15T18:38:23.701Z,97112.69
2019-03-15T18:40:54.788Z,97133.00
2019-03-15T18:43:25.837Z,97125.35
2019-03-15T18:45:56.823Z,97117.27
2019-03-15T18:48:27.815Z,97132.63
2019-03-15T18:50:58.758Z,97116.34
2019-03-15T18:53:30.070Z,97126.66
2019-03-15T18:56:01.103Z,97117.06
2019-03-15T18:58:32.172Z,97156.39
2019-03-15T19:01:03.042Z,97122.19
2019-03-15T19:03:34.029Z,97126.56
2019-03-15T19:06:04.991Z,97141.58
2019-03-15T19:08:36.034Z,97126.39
2019-03-15T19:11:07.027Z,97155.72
2019-03-15T19:13:38.058Z,97141.38
2019-03-15T19:16:19.571Z,97121.81
2019-03-15T19:18:42.101Z,97139.35
2019-03-15T19:21:13.189Z,97127.03
2019-03-15T19:23:44.491Z,97150.70
2019-03-15T19:26:15.583Z,97155.80
2019-03-15T19:28:46.751Z,97168.58
2019-03-15T19:31:17.908Z,97154.20
2019-03-15T19:33:50.661Z,97132.63
2019-03-15T19:36:21.530Z,97151.58
2019-03-15T19:38:52.654Z,97144.14
2019-03-15T19:41:23.602Z,97156.98
2019-03-15T19:43:55.536Z,97160.86
2019-03-15T19:46:26.440Z,97153.70
2019-03-15T19:48:57.609Z,97150.27
2019-03-15T19:51:28.538Z,97152.48
2019-03-15T19:53:59.608Z,97160.59
2019-03-15T19:56:30.749Z,97164.61
2019-03-15T19:59:01.795Z,97172.03
2019-03-15T20:01:32.705Z,97159.66
2019-03-15T20:04:03.754Z,97205.75
2019-03-15T20:06:34.805Z,97161.53
2019-03-15T20:09:07.843Z,97166.64
2019-03-15T20:11:38.844Z,97173.33
2019-03-15T20:14:09.963Z,97183.59
2019-03-15T20:16:40.875Z,97204.36
2019-03-15T20:19:11.857Z,97171.11
2019-03-15T20:21:42.739Z,97167.03
2019-03-15T20:24:13.768Z,97182.46
2019-03-15T20:26:44.734Z,97178.47
2019-03-15T20:29:15.637Z,97190.49
2019-03-15T20:31:46.628Z,97182.39
2019-03-15T20:34:17.525Z,97164.52
2019-03-15T20:37:09.253Z,97183.40
2019-03-15T20:39:40.716Z,97169.45
2019-03-15T20:42:11.967Z,97186.70
2019-03-15T20:44:43.081Z,97173.29
2019-03-15T20:47:15.817Z,97189.61
2019-03-15T20:49:48.473Z,97171.65
2019-03-15T20:52:21.045Z,97135.78
2019-03-15T20:54:52.010Z,97190.92
2019-03-15T20:57:22.994Z,97184.22
2019-03-15T20:59:53.891Z,97201.81
2019-03-15T21:02:26.644Z,97194.00
2019-03-15T21:04:59.780Z,97183.31
2019-03-15T21:07:30.764Z,97188.23
2019-03-15T21:10:02.100Z,97187.55
2019-03-15T21:12:36.428Z,97204.88
2019-03-15T21:15:10.468Z,97235.01
2019-03-15T21:17:43.323Z,97193.91
2019-03-15T21:20:15.655Z,97203.59
2019-03-15T21:22:47.315Z,97191.80
2019-03-15T21:25:19.935Z,97185.45
2019-03-15T21:27:54.574Z,97186.94
2019-03-15T21:30:26.262Z,97188.36
2019-03-15T21:32:57.270Z,97208.56
2019-03-15T21:35:28.198Z,97182.18
2019-03-15T21:37:59.173Z,97179.95
2019-03-15T21:40:32.134Z,97198.33
2019-03-15T21:43:03.590Z,97198.80
2019-03-15T21:45:34.576Z,97216.30
2019-03-15T21:48:05.754Z,97210.33
2019-03-15T21:50:37.152Z,97220.39
2019-03-15T21:53:10.390Z,97227.75
2019-03-15T21:55:43.022Z,97201.02
2019-03-15T21:58:14.090Z,97217.98
2019-03-15T22:00:45.086Z,97198.13
2019-03-15T22:03:36.145Z,97200.81
2019-03-15T22:06:02.442Z,97209.86
2019-03-15T22:08:34.642Z,97215.16
2019-03-15T22:11:20.100Z,97208.64
2019-03-15T22:13:39.952Z,97198.50
2019-03-15T22:16:32.504Z,97217.52
2019-03-15T22:19:07.261Z,97220.01
2019-03-15T22:21:38.355Z,97217.23
2019-03-15T22:24:09.298Z,97242.47
2019-03-15T22:26:40.351Z,97219.07
2019-03-15T22:29:11.450Z,97205.94
2019-03-15T22:31:42.407Z,97220.92
2019-03-15T22:34:13.337Z,97194.76
2019-03-15T22:36:44.223Z,97216.67
2019-03-15T22:39:15.190Z,97212.01
2019-03-15T22:41:46.058Z,97201.11
2019-03-15T22:44:17.036Z,97230.44
2019-03-15T22:46:48.096Z,97200.27
2019-03-15T22:49:19.033Z,97220.67
2019-03-15T22:51:49.927Z,97217.69
2019-03-15T22:54:20.886Z,97227.28
2019-03-15T22:56:51.848Z,97220.21
2019-03-15T22:59:22.757Z,97207.55
2019-03-15T23:01:53.732Z,97243.23
2019-03-15T23:04:24.693Z,97215.55
2019-03-15T23:06:55.650Z,97268.10
2019-03-15T23:09:26.763Z,97235.23
2019-03-15T23:11:57.678Z,97261.03
2019-03-15T23:14:28.709Z,97266.34
2019-03-15T23:16:59.618Z,97269.32
2019-03-15T23:19:30.598Z,97225.72
2019-03-15T23:22:01.605Z,97235.41
2019-03-15T23:24:32.567Z,97212.77
2019-03-15T23:27:03.664Z,97239.23
2019-03-15T23:29:34.588Z,97239.32
2019-03-15T23:32:05.549Z,97202.70
2019-03-15T23:34:36.550Z,97222.27
2019-03-15T23:37:07.534Z,97259.27
2019-03-15T23:39:38.437Z,97242.22
2019-03-15T23:42:09.463Z,97247.52
2019-03-15T23:44:40.403Z,97256.91
2019-03-15T23:47:11.368Z,97260.27
2019-03-15T23:49:42.249Z,97253.75
2019-03-15T23:52:13.323Z,97253.37
2019-03-15T23:54:44.393Z,97262.95
2019-03-15T23:57:15.349Z,97252.22
2019-03-15T23:59:46.333Z,97248.22
